Time;durP1;ratioP1;P1;durP2;ratioP2;P2;SDS_P1;SDS_P2;PMS_P1;PMS_P2;Temp;Humidity;BMP_temperature;BMP_pressure;BME280_temperature;BME280_humidity;BME280_pressure;Samples;Min_cycle;Max_cycle;Signal;HPM_P1;HPM_P2
2021/04/28 00:00:01;;;;;;;15.13;8.80;;;7.30;99.90;;;;;;4223304;28;20039;-65
2021/04/28 00:02:02;;;;;;;15.90;9.80;;;7.30;99.90;;;;;;4224028;28;21074;-64
2021/04/28 00:04:05;;;;;;;12.73;8.73;;;7.30;99.90;;;;;;4230614;27;20324;-66
2021/04/28 00:06:06;;;;;;;14.47;9.37;;;7.30;99.90;;;;;;4240954;27;20327;-64
2021/04/28 00:08:07;;;;;;;17.43;10.07;;;7.30;99.90;;;;;;4239339;27;20784;-72
2021/04/28 00:10:11;;;;;;;16.23;9.73;;;7.30;99.90;;;;;;4239118;27;20312;-65
2021/04/28 00:12:12;;;;;;;14.97;10.00;;;7.20;99.90;;;;;;4222632;28;20049;-65
2021/04/28 00:14:13;;;;;;;16.03;9.93;;;7.20;99.90;;;;;;4224066;28;20864;-64
2021/04/28 00:16:19;;;;;;;15.87;9.87;;;7.20;99.90;;;;;;4232735;27;20851;-64
2021/04/28 00:18:20;;;;;;;13.73;9.47;;;7.20;99.90;;;;;;4240973;27;20023;-64
2021/04/28 00:20:23;;;;;;;17.87;10.17;;;7.20;99.90;;;;;;4237744;27;20402;-65
2021/04/28 00:22:24;;;;;;;18.60;10.13;;;7.20;99.90;;;;;;4240768;27;20111;-63
2021/04/28 00:24:26;;;;;;;13.03;9.47;;;7.20;99.90;;;;;;4239404;27;20279;-66
2021/04/28 00:26:27;;;;;;;15.77;9.07;;;7.20;99.90;;;;;;4240707;27;20320;-68
2021/04/28 00:28:28;;;;;;;16.37;9.47;;;7.30;99.90;;;;;;4239254;27;20023;-73
2021/04/28 00:30:29;;;;;;;14.90;10.20;;;7.30;99.90;;;;;;4240254;27;20035;-72
2021/04/28 00:32:30;;;;;;;13.83;8.93;;;7.30;99.90;;;;;;4239997;27;20259;-64
2021/04/28 00:34:32;;;;;;;13.73;8.93;;;7.30;99.90;;;;;;4239536;27;20360;-63
2021/04/28 00:36:33;;;;;;;14.27;9.33;;;7.30;99.90;;;;;;4225223;27;20024;-64
2021/04/28 00:38:34;;;;;;;14.63;9.63;;;7.30;99.90;;;;;;4222267;27;20277;-64
2021/04/28 00:40:38;;;;;;;15.00;9.63;;;7.30;99.90;;;;;;4223351;28;20304;-64
2021/04/28 00:42:42;;;;;;;13.43;9.87;;;7.30;99.90;;;;;;4225652;27;20271;-64
2021/04/28 00:44:43;;;;;;;14.20;9.53;;;7.30;99.90;;;;;;4239053;27;20316;-64
2021/04/28 00:46:45;;;;;;;13.80;9.37;;;7.20;99.90;;;;;;4239596;27;20080;-70
2021/04/28 00:48:46;;;;;;;14.43;10.47;;;7.20;99.90;;;;;;4240526;27;20259;-64
2021/04/28 00:50:49;;;;;;;14.67;10.03;;;7.20;99.90;;;;;;4238724;27;20027;-63
2021/04/28 00:52:51;;;;;;;15.30;9.37;;;7.20;99.90;;;;;;4240042;27;20287;-64
2021/04/28 00:54:52;;;;;;;13.67;9.63;;;7.20;99.90;;;;;;4239122;27;20359;-64
2021/04/28 00:56:56;;;;;;;15.73;10.70;;;7.20;99.90;;;;;;4240633;27;20103;-64
2021/04/28 00:58:59;;;;;;;13.47;9.80;;;7.10;99.90;;;;;;4239085;27;20539;-64
2021/04/28 01:01:00;;;;;;;15.33;10.27;;;7.10;99.90;;;;;;4240296;27;20031;-63
2021/04/28 01:03:02;;;;;;;15.97;10.37;;;7.10;99.90;;;;;;4225419;28;20264;-63
2021/04/28 01:05:05;;;;;;;14.87;9.77;;;7.10;99.90;;;;;;4226337;28;20035;-65
2021/04/28 01:07:08;;;;;;;16.07;10.50;;;7.00;99.90;;;;;;4239102;27;20340;-66
2021/04/28 01:09:12;;;;;;;16.40;10.90;;;7.00;99.90;;;;;;4239237;27;20276;-74
2021/04/28 01:11:14;;;;;;;14.10;9.93;;;7.00;99.90;;;;;;4239834;28;20320;-66
2021/04/28 01:13:15;;;;;;;17.23;9.63;;;7.00;99.90;;;;;;4239018;28;20015;-66
2021/04/28 01:15:21;;;;;;;16.10;9.60;;;6.90;99.90;;;;;;4240019;28;20027;-65
2021/04/28 01:17:22;;;;;;;16.23;9.93;;;6.90;99.90;;;;;;4239538;28;20259;-64
2021/04/28 01:19:24;;;;;;;18.83;10.40;;;6.90;99.90;;;;;;4240403;28;20316;-65
2021/04/28 01:21:25;;;;;;;13.70;9.53;;;6.80;99.90;;;;;;4238745;28;20685;-64
2021/04/28 01:23:26;;;;;;;14.33;9.97;;;6.80;99.90;;;;;;4223996;27;20325;-65
2021/04/28 01:25:27;;;;;;;15.03;10.17;;;6.80;99.90;;;;;;4227556;28;20835;-63
2021/04/28 01:27:30;;;;;;;15.63;9.67;;;6.70;99.90;;;;;;4240358;28;20267;-64
2021/04/28 01:29:33;;;;;;;12.33;9.27;;;6.60;99.90;;;;;;4238778;28;20308;-72
2021/04/28 01:31:35;;;;;;;17.73;11.17;;;6.60;99.90;;;;;;4239523;28;20275;-64
2021/04/28 01:33:36;;;;;;;13.83;9.93;;;6.50;99.90;;;;;;4237526;28;20301;-64
2021/04/28 01:35:38;;;;;;;16.23;10.17;;;6.50;99.90;;;;;;4239818;28;20267;-64
2021/04/28 01:37:39;;;;;;;15.73;9.70;;;6.50;99.90;;;;;;4238688;27;20300;-66
2021/04/28 01:39:42;;;;;;;15.47;10.17;;;6.50;99.90;;;;;;4239080;28;20391;-64
2021/04/28 01:41:46;;;;;;;15.57;10.57;;;6.50;99.90;;;;;;4239680;28;20260;-65
2021/04/28 01:43:48;;;;;;;18.07;11.40;;;6.40;99.90;;;;;;4238980;28;20275;-65
2021/04/28 01:45:51;;;;;;;16.77;11.53;;;6.40;99.90;;;;;;4239710;28;20324;-64
2021/04/28 01:47:53;;;;;;;16.03;10.13;;;6.40;99.90;;;;;;4239261;28;20308;-64
2021/04/28 01:49:54;;;;;;;16.93;11.47;;;6.40;99.90;;;;;;4240315;28;21137;-64
2021/04/28 01:51:57;;;;;;;16.67;12.07;;;6.40;99.90;;;;;;4233917;28;20276;-63
2021/04/28 01:54:02;;;;;;;18.53;11.20;;;6.40;99.90;;;;;;4223291;28;20907;-65
2021/04/28 01:56:05;;;;;;;18.03;11.03;;;6.40;99.90;;;;;;4221072;28;20310;-63
2021/04/28 01:58:07;;;;;;;18.53;11.20;;;6.30;99.90;;;;;;4222883;28;20640;-64
2021/04/28 02:00:11;;;;;;;17.13;11.53;;;6.30;99.90;;;;;;4221356;28;20292;-64
2021/04/28 02:02:14;;;;;;;18.60;11.30;;;6.30;99.90;;;;;;4240483;27;20317;-63
2021/04/28 02:04:16;;;;;;;16.90;10.87;;;6.30;99.90;;;;;;4242026;27;20624;-64
2021/04/28 02:06:17;;;;;;;16.70;10.67;;;6.20;99.90;;;;;;4242954;27;20344;-63
2021/04/28 02:08:20;;;;;;;17.57;10.70;;;6.20;99.90;;;;;;4241058;27;20730;-65
2021/04/28 02:10:21;;;;;;;18.90;11.13;;;6.20;99.90;;;;;;4240618;27;20738;-64
2021/04/28 02:12:22;;;;;;;18.03;11.50;;;6.20;99.90;;;;;;4224778;28;20737;-64
2021/04/28 02:14:25;;;;;;;17.50;10.90;;;6.20;99.90;;;;;;4225208;28;20313;-64
2021/04/28 02:16:28;;;;;;;16.13;11.37;;;6.20;99.90;;;;;;4225024;28;20735;-63
2021/04/28 02:18:30;;;;;;;18.93;12.00;;;6.10;99.90;;;;;;4225278;28;20672;-65
2021/04/28 02:20:31;;;;;;;19.37;10.47;;;6.10;99.90;;;;;;4225163;28;20711;-66
2021/04/28 02:22:34;;;;;;;17.73;11.47;;;6.10;99.90;;;;;;4224415;27;20281;-63
2021/04/28 02:24:35;;;;;;;17.17;10.90;;;6.10;99.90;;;;;;4225647;28;20272;-63
2021/04/28 02:26:37;;;;;;;17.10;10.93;;;6.10;99.90;;;;;;4223990;28;20280;-64
2021/04/28 02:28:38;;;;;;;17.87;11.57;;;6.00;99.90;;;;;;4225694;28;20264;-64
2021/04/28 02:30:39;;;;;;;18.47;11.73;;;6.00;99.90;;;;;;4223913;28;20718;-63
2021/04/28 02:32:43;;;;;;;18.50;10.93;;;6.00;99.90;;;;;;4225753;28;20739;-64
2021/04/28 02:34:44;;;;;;;20.57;11.97;;;6.00;99.90;;;;;;4224071;28;21012;-64
2021/04/28 02:36:50;;;;;;;19.67;12.27;;;5.90;99.90;;;;;;4225622;28;20760;-62
2021/04/28 02:39:00;;;;;;;19.30;11.03;;;5.90;99.90;;;;;;4223860;28;20646;-65
2021/04/28 02:41:03;;;;;;;18.77;10.95;;;5.90;99.90;;;;;;4239329;27;20291;-64
2021/04/28 02:43:05;;;;;;;16.57;11.03;;;5.90;99.90;;;;;;4240333;27;20035;-65
2021/04/28 02:45:07;;;;;;;19.67;10.90;;;5.90;99.90;;;;;;4242320;27;20946;-67
2021/04/28 02:47:09;;;;;;;17.57;11.33;;;5.90;99.90;;;;;;4241129;27;20259;-64
2021/04/28 02:49:13;;;;;;;16.27;10.87;;;5.90;99.90;;;;;;4241610;27;20314;-65
2021/04/28 02:51:15;;;;;;;17.40;11.37;;;5.90;99.90;;;;;;4240815;27;20312;-65
2021/04/28 02:53:18;;;;;;;17.73;11.50;;;5.90;99.90;;;;;;4241660;27;20275;-63
2021/04/28 02:55:20;;;;;;;22.87;12.37;;;5.80;99.90;;;;;;4237550;27;20267;-65
2021/04/28 02:57:22;;;;;;;19.17;11.77;;;5.80;99.90;;;;;;4226080;27;20689;-64
2021/04/28 02:59:24;;;;;;;17.87;12.70;;;5.90;99.90;;;;;;4241830;27;20782;-64
2021/04/28 03:01:26;;;;;;;18.20;12.13;;;5.90;99.90;;;;;;4240089;27;20336;-67
2021/04/28 03:03:28;;;;;;;23.10;11.90;;;5.90;99.90;;;;;;4242071;27;20339;-65
2021/04/28 03:05:29;;;;;;;22.73;13.17;;;5.90;99.90;;;;;;4240115;27;20692;-64
2021/04/28 03:07:32;;;;;;;18.13;12.00;;;5.90;99.90;;;;;;4242271;27;20320;-64
2021/04/28 03:09:35;;;;;;;18.77;11.47;;;5.90;99.90;;;;;;4240040;27;20661;-64
2021/04/28 03:11:39;;;;;;;19.77;11.80;;;5.90;99.90;;;;;;4224960;27;20296;-70
2021/04/28 03:13:41;;;;;;;19.50;11.60;;;5.90;99.90;;;;;;4224168;27;20281;-64
2021/04/28 03:15:43;;;;;;;18.87;11.53;;;5.80;99.90;;;;;;4241630;27;20309;-65
2021/04/28 03:17:46;;;;;;;21.60;11.97;;;5.90;99.90;;;;;;4239095;27;20267;-70
2021/04/28 03:19:50;;;;;;;16.20;10.60;;;5.80;99.90;;;;;;4240507;27;20316;-69
2021/04/28 03:21:52;;;;;;;19.70;12.17;;;5.80;99.90;;;;;;4238489;27;20272;-65
2021/04/28 03:23:53;;;;;;;16.43;11.43;;;5.90;99.90;;;;;;4241086;27;20320;-66
2021/04/28 03:25:54;;;;;;;21.33;11.47;;;5.90;99.90;;;;;;4238790;27;20275;-65
2021/04/28 03:27:56;;;;;;;20.83;11.63;;;5.90;99.90;;;;;;4240533;27;20291;-63
2021/04/28 03:29:58;;;;;;;16.13;11.13;;;5.90;99.90;;;;;;4240592;27;20267;-65
2021/04/28 03:31:59;;;;;;;17.47;11.57;;;5.80;99.90;;;;;;4239922;27;21108;-63
2021/04/28 03:34:00;;;;;;;17.90;11.43;;;5.80;99.90;;;;;;4241197;27;20275;-63
2021/04/28 03:36:02;;;;;;;16.17;10.43;;;5.80;99.90;;;;;;4238603;27;20647;-65
2021/04/28 03:38:04;;;;;;;20.33;11.10;;;5.80;99.90;;;;;;4241552;27;20275;-65
2021/04/28 03:40:07;;;;;;;16.17;10.63;;;5.80;99.90;;;;;;4237774;27;20304;-63
2021/04/28 03:42:09;;;;;;;16.70;10.37;;;5.80;99.90;;;;;;4241056;27;20304;-65
2021/04/28 03:44:10;;;;;;;18.90;10.77;;;5.80;99.90;;;;;;4239678;27;20324;-63
2021/04/28 03:46:12;;;;;;;18.77;10.60;;;5.80;99.90;;;;;;4228321;27;20921;-66
2021/04/28 03:48:13;;;;;;;18.10;11.27;;;5.80;99.90;;;;;;4223663;28;20333;-64
2021/04/28 03:50:14;;;;;;;17.37;10.93;;;5.80;99.90;;;;;;4224434;28;20317;-65
2021/04/28 03:52:16;;;;;;;20.30;11.63;;;5.80;99.90;;;;;;4222564;28;20297;-67
2021/04/28 03:54:19;;;;;;;18.03;11.23;;;5.80;99.90;;;;;;4236719;27;20332;-71
2021/04/28 03:56:23;;;;;;;17.60;10.93;;;5.80;99.90;;;;;;4224090;27;20337;-78
2021/04/28 03:58:24;;;;;;;15.97;11.20;;;5.90;99.90;;;;;;4236108;27;20316;-72
2021/04/28 04:00:25;;;;;;;17.43;11.10;;;5.90;99.90;;;;;;4230729;27;20690;-78
2021/04/28 04:02:29;;;;;;;17.43;10.97;;;5.90;99.90;;;;;;4235233;27;20686;-76
2021/04/28 04:04:31;;;;;;;18.33;10.80;;;5.90;99.90;;;;;;4223129;28;20280;-64
2021/04/28 04:06:32;;;;;;;14.90;10.03;;;5.90;99.90;;;;;;4222468;28;20329;-75
2021/04/28 04:08:34;;;;;;;14.27;10.00;;;5.90;99.90;;;;;;4222157;28;20325;-71
2021/04/28 04:10:35;;;;;;;16.03;10.67;;;5.90;99.90;;;;;;4222481;28;20280;-72
2021/04/28 04:12:36;;;;;;;16.87;10.90;;;5.90;99.90;;;;;;4224126;28;21367;-67
2021/04/28 04:14:37;;;;;;;15.90;10.00;;;5.90;99.90;;;;;;4223456;27;20309;-67
2021/04/28 04:16:38;;;;;;;18.53;10.50;;;5.90;99.90;;;;;;4224773;27;20752;-68
2021/04/28 04:18:40;;;;;;;18.77;11.13;;;5.90;99.90;;;;;;4222378;28;20813;-67
2021/04/28 04:20:41;;;;;;;16.37;10.37;;;6.00;99.90;;;;;;4222591;28;20337;-64
2021/04/28 04:22:42;;;;;;;16.13;9.97;;;6.00;99.90;;;;;;4222021;28;20335;-65
2021/04/28 04:24:43;;;;;;;18.67;10.93;;;6.00;99.90;;;;;;4224032;28;20256;-65
2021/04/28 04:26:44;;;;;;;18.17;10.10;;;6.00;99.90;;;;;;4221448;28;20813;-73
2021/04/28 04:28:46;;;;;;;17.20;10.20;;;6.00;99.90;;;;;;4223276;28;20264;-66
2021/04/28 04:30:50;;;;;;;19.07;10.20;;;6.00;99.90;;;;;;4222408;28;20708;-65
2021/04/28 04:32:51;;;;;;;15.23;9.53;;;6.00;99.90;;;;;;4228957;27;20271;-66
2021/04/28 04:34:52;;;;;;;17.50;10.20;;;5.90;99.90;;;;;;4238178;27;21182;-67
2021/04/28 04:36:53;;;;;;;17.37;10.00;;;5.90;99.90;;;;;;4237697;27;20275;-76
2021/04/28 04:38:54;;;;;;;16.90;9.33;;;5.90;99.90;;;;;;4239699;27;20641;-64
2021/04/28 04:40:55;;;;;;;16.23;9.83;;;5.90;99.90;;;;;;4238252;27;20327;-65
2021/04/28 04:42:57;;;;;;;13.23;9.80;;;5.90;99.90;;;;;;4238381;27;20376;-66
2021/04/28 04:44:58;;;;;;;16.40;10.07;;;5.90;99.90;;;;;;4238416;27;20263;-67
2021/04/28 04:46:59;;;;;;;13.97;9.43;;;6.00;99.90;;;;;;4240053;27;20348;-65
2021/04/28 04:49:00;;;;;;;15.33;10.10;;;5.90;99.90;;;;;;4237611;27;20271;-65
2021/04/28 04:51:01;;;;;;;16.47;9.43;;;6.00;99.90;;;;;;4226514;27;20321;-65
2021/04/28 04:53:04;;;;;;;17.57;10.27;;;6.00;99.90;;;;;;4220667;28;20325;-65
2021/04/28 04:55:07;;;;;;;19.53;9.97;;;6.00;99.90;;;;;;4222892;28;20313;-67
2021/04/28 04:57:09;;;;;;;15.67;9.70;;;6.00;99.90;;;;;;4221291;28;20248;-69
2021/04/28 04:59:10;;;;;;;15.50;9.00;;;6.00;99.90;;;;;;4223075;28;20751;-72
2021/04/28 05:01:11;;;;;;;16.47;9.87;;;6.00;99.90;;;;;;4221547;28;20292;-65
2021/04/28 05:03:12;;;;;;;13.93;8.80;;;6.00;99.90;;;;;;4222717;28;20321;-63
2021/04/28 05:05:14;;;;;;;16.90;9.50;;;6.00;99.90;;;;;;4220304;28;20297;-64
2021/04/28 05:07:16;;;;;;;17.13;9.33;;;6.00;99.90;;;;;;4221866;28;20317;-65
2021/04/28 05:09:17;;;;;;;12.67;8.30;;;6.00;99.90;;;;;;4222637;28;20336;-64
2021/04/28 05:11:18;;;;;;;15.60;8.90;;;6.00;99.90;;;;;;4219654;28;20272;-65
2021/04/28 05:13:20;;;;;;;15.60;9.00;;;6.00;99.90;;;;;;4222976;28;20281;-64
2021/04/28 05:15:21;;;;;;;14.13;8.20;;;6.00;99.90;;;;;;4221781;28;20317;-64
2021/04/28 05:17:22;;;;;;;12.70;8.20;;;6.00;99.90;;;;;;4224172;28;20811;-64
2021/04/28 05:19:23;;;;;;;11.83;8.67;;;6.00;99.90;;;;;;4221574;28;20268;-65
2021/04/28 05:21:24;;;;;;;14.23;9.10;;;6.00;99.90;;;;;;4223550;28;20361;-65
2021/04/28 05:23:25;;;;;;;14.10;9.13;;;6.00;99.90;;;;;;4221288;28;20609;-63
2021/04/28 05:25:26;;;;;;;13.63;9.07;;;6.00;99.90;;;;;;4223004;28;20313;-66
2021/04/28 05:27:27;;;;;;;17.60;8.93;;;6.00;99.90;;;;;;4222012;28;20264;-65
2021/04/28 05:29:30;;;;;;;15.20;8.73;;;6.00;99.90;;;;;;4223377;28;20269;-63
2021/04/28 05:31:32;;;;;;;14.63;9.57;;;6.00;99.90;;;;;;4221384;28;20264;-64
2021/04/28 05:33:33;;;;;;;13.47;8.97;;;6.00;99.90;;;;;;4222414;28;20341;-64
2021/04/28 05:35:34;;;;;;;15.00;9.57;;;6.00;99.90;;;;;;4222104;28;20264;-65
2021/04/28 05:37:36;;;;;;;12.77;8.77;;;6.00;99.90;;;;;;4222951;28;20280;-64
2021/04/28 05:39:37;;;;;;;14.40;8.80;;;6.00;99.90;;;;;;4225278;28;20732;-65
2021/04/28 05:41:39;;;;;;;14.83;9.17;;;6.00;99.90;;;;;;4224540;28;20344;-64
2021/04/28 05:43:40;;;;;;;12.13;8.47;;;6.00;99.90;;;;;;4226138;28;20373;-63
2021/04/28 05:45:43;;;;;;;13.17;8.97;;;6.10;99.90;;;;;;4224740;28;20325;-64
2021/04/28 05:47:44;;;;;;;12.90;9.30;;;6.10;99.90;;;;;;4226392;28;20309;-65
2021/04/28 05:49:45;;;;;;;16.07;9.60;;;6.10;99.90;;;;;;4224188;28;20264;-64
2021/04/28 05:51:46;;;;;;;13.90;8.77;;;6.10;99.90;;;;;;4226435;28;20284;-64
2021/04/28 05:53:47;;;;;;;14.53;8.67;;;6.10;99.90;;;;;;4225009;28;20740;-63
2021/04/28 05:55:49;;;;;;;14.87;9.30;;;6.10;99.90;;;;;;4225625;28;20260;-64
2021/04/28 05:57:50;;;;;;;19.83;10.33;;;6.10;99.90;;;;;;4224685;28;20256;-64
2021/04/28 05:59:51;;;;;;;13.90;9.33;;;6.20;99.90;;;;;;4226355;28;20264;-65
2021/04/28 06:01:52;;;;;;;15.23;9.20;;;6.10;99.90;;;;;;4224450;28;20288;-64
2021/04/28 06:03:53;;;;;;;12.57;8.37;;;6.10;99.90;;;;;;4225385;28;20325;-64
2021/04/28 06:05:54;;;;;;;13.57;8.73;;;6.20;99.90;;;;;;4224317;28;20659;-64
2021/04/28 06:07:55;;;;;;;12.20;9.10;;;6.20;99.90;;;;;;4224913;28;20252;-64
2021/04/28 06:09:57;;;;;;;14.57;10.00;;;6.20;99.90;;;;;;4224858;28;20271;-64
2021/04/28 06:11:58;;;;;;;14.83;10.33;;;6.30;99.90;;;;;;4224020;28;20674;-65
2021/04/28 06:13:59;;;;;;;12.30;8.73;;;6.30;99.90;;;;;;4225681;28;20252;-66
2021/04/28 06:16:00;;;;;;;12.77;9.80;;;6.30;99.90;;;;;;4223793;27;20280;-64
2021/04/28 06:18:05;;;;;;;16.83;9.80;;;6.40;99.90;;;;;;4226516;28;20272;-65
2021/04/28 06:20:08;;;;;;;14.43;9.33;;;6.40;99.90;;;;;;4224214;28;20248;-64
2021/04/28 06:22:10;;;;;;;13.67;9.40;;;6.40;99.90;;;;;;4225269;27;20431;-68
2021/04/28 06:24:11;;;;;;;15.87;10.43;;;6.50;99.90;;;;;;4224217;28;20264;-64
2021/04/28 06:26:12;;;;;;;13.67;9.60;;;6.50;99.90;;;;;;4225435;28;20301;-64
2021/04/28 06:28:13;;;;;;;14.80;9.17;;;6.50;99.90;;;;;;4223984;28;20321;-69
2021/04/28 06:30:14;;;;;;;12.10;8.40;;;6.50;99.90;;;;;;4225600;28;20272;-64
2021/04/28 06:32:16;;;;;;;14.10;8.53;;;6.50;99.90;;;;;;4223383;28;20605;-64
2021/04/28 06:34:17;;;;;;;15.23;8.93;;;6.50;99.90;;;;;;4225947;28;20284;-64
2021/04/28 06:36:18;;;;;;;13.27;9.40;;;6.60;99.90;;;;;;4223535;28;20259;-64
2021/04/28 06:38:19;;;;;;;11.03;8.40;;;6.60;99.90;;;;;;4224445;28;20324;-64
2021/04/28 06:40:22;;;;;;;11.07;7.73;;;6.70;99.90;;;;;;4224249;28;20340;-64
2021/04/28 06:42:23;;;;;;;10.43;8.07;;;6.70;99.90;;;;;;4222204;28;20330;-64
2021/04/28 06:44:24;;;;;;;9.97;7.90;;;6.70;99.90;;;;;;4225002;28;20255;-65
2021/04/28 06:46:26;;;;;;;10.30;7.50;;;6.70;99.90;;;;;;4223697;28;20689;-66
2021/04/28 06:48:27;;;;;;;10.87;7.07;;;6.80;99.90;;;;;;4225876;28;20556;-69
2021/04/28 06:50:28;;;;;;;12.63;7.80;;;6.80;99.90;;;;;;4222298;28;20260;-64
2021/04/28 06:52:29;;;;;;;9.87;7.33;;;6.80;99.90;;;;;;4224361;28;20752;-64
2021/04/28 06:54:31;;;;;;;11.10;8.03;;;6.80;99.90;;;;;;4223168;28;20260;-67
2021/04/28 06:56:32;;;;;;;10.60;7.93;;;6.90;99.90;;;;;;4225431;28;20313;-64
2021/04/28 06:58:34;;;;;;;10.87;7.27;;;6.90;99.90;;;;;;4222753;28;20264;-65
2021/04/28 07:00:35;;;;;;;9.80;6.27;;;6.90;99.90;;;;;;4224918;28;20264;-63
2021/04/28 07:02:36;;;;;;;9.43;6.83;;;6.90;99.90;;;;;;4223245;28;20360;-64
2021/04/28 07:04:38;;;;;;;10.90;7.00;;;6.90;99.90;;;;;;4225717;28;20710;-64
2021/04/28 07:06:39;;;;;;;9.17;6.17;;;6.90;99.90;;;;;;4223866;28;20267;-64
2021/04/28 07:08:40;;;;;;;9.73;7.20;;;6.90;99.90;;;;;;4224299;28;20317;-64
2021/04/28 07:10:41;;;;;;;9.33;7.07;;;7.00;99.90;;;;;;4223893;28;20257;-64
2021/04/28 07:12:43;;;;;;;10.83;7.23;;;7.00;99.90;;;;;;4224210;28;20316;-65
2021/04/28 07:14:44;;;;;;;9.43;6.13;;;7.00;99.90;;;;;;4224275;28;20318;-63
2021/04/28 07:16:45;;;;;;;8.63;6.20;;;7.10;99.90;;;;;;4223891;28;20256;-65
2021/04/28 07:18:46;;;;;;;7.77;6.30;;;7.10;99.90;;;;;;4225380;28;20276;-65
2021/04/28 07:20:47;;;;;;;7.60;6.23;;;7.10;99.90;;;;;;4223329;28;20743;-69
2021/04/28 07:22:48;;;;;;;9.73;6.83;;;7.10;99.90;;;;;;4224931;28;20268;-63
2021/04/28 07:24:49;;;;;;;8.90;6.33;;;7.10;99.90;;;;;;4222354;28;20268;-64
2021/04/28 07:26:52;;;;;;;9.20;6.57;;;7.10;99.90;;;;;;4224440;28;20268;-63
2021/04/28 07:28:53;;;;;;;11.40;6.97;;;7.20;99.90;;;;;;4220975;28;20035;-64
2021/04/28 07:30:54;;;;;;;8.27;5.93;;;7.20;99.90;;;;;;4225037;28;20080;-63
2021/04/28 07:32:55;;;;;;;9.73;6.23;;;7.20;99.90;;;;;;4223100;28;20859;-63
2021/04/28 07:34:56;;;;;;;8.00;5.97;;;7.20;99.90;;;;;;4224452;28;20749;-65
2021/04/28 07:36:57;;;;;;;8.73;6.67;;;7.20;99.90;;;;;;4223193;28;20089;-65
2021/04/28 07:38:59;;;;;;;10.13;7.20;;;7.20;99.90;;;;;;4222278;28;20888;-63
2021/04/28 07:41:00;;;;;;;12.80;7.53;;;7.30;99.90;;;;;;4222962;28;20019;-64
2021/04/28 07:43:01;;;;;;;11.90;6.53;;;7.40;99.90;;;;;;4224080;28;20768;-64
2021/04/28 07:45:04;;;;;;;10.87;7.80;;;7.40;99.90;;;;;;4223774;28;20089;-63
2021/04/28 07:47:05;;;;;;;12.80;7.90;;;7.50;99.90;;;;;;4223579;28;20344;-66
2021/04/28 07:49:06;;;;;;;10.07;8.23;;;7.50;99.90;;;;;;4224747;28;20667;-63
2021/04/28 07:51:07;;;;;;;11.27;7.70;;;7.50;99.90;;;;;;4223383;28;20594;-65
2021/04/28 07:53:08;;;;;;;12.40;9.33;;;7.60;99.90;;;;;;4224277;28;20873;-64
2021/04/28 07:55:11;;;;;;;11.07;8.00;;;7.60;99.90;;;;;;4222666;28;20116;-65
2021/04/28 07:57:13;;;;;;;14.30;9.37;;;7.60;99.90;;;;;;4224548;28;20080;-64
2021/04/28 07:59:15;;;;;;;11.70;8.90;;;7.60;99.90;;;;;;4222552;28;20040;-65
2021/04/28 08:01:16;;;;;;;8.63;6.60;;;7.70;99.90;;;;;;4224352;28;20287;-64
2021/04/28 08:03:17;;;;;;;10.53;6.93;;;7.80;99.90;;;;;;4222477;28;20028;-64
2021/04/28 08:05:19;;;;;;;10.83;7.23;;;7.80;99.90;;;;;;4224160;28;20421;-64
2021/04/28 08:07:21;;;;;;;9.37;6.80;;;7.90;99.90;;;;;;4222649;28;20491;-65
2021/04/28 08:09:22;;;;;;;8.33;5.70;;;8.00;99.90;;;;;;4224004;28;20089;-65
2021/04/28 08:11:24;;;;;;;7.63;5.43;;;8.20;99.90;;;;;;4222768;28;20069;-66
2021/04/28 08:13:26;;;;;;;5.80;5.20;;;8.40;99.90;;;;;;4222929;28;20156;-65
2021/04/28 08:15:27;;;;;;;6.07;5.43;;;8.60;99.90;;;;;;4223207;28;20061;-65
2021/04/28 08:17:29;;;;;;;6.30;5.07;;;8.70;99.90;;;;;;4222384;28;20024;-64
2021/04/28 08:19:30;;;;;;;6.57;5.13;;;8.90;99.90;;;;;;4223631;28;20024;-65
2021/04/28 08:21:32;;;;;;;7.23;5.67;;;9.00;99.90;;;;;;4203180;28;20048;-65
2021/04/28 08:23:34;;;;;;;6.43;5.47;;;9.10;99.90;;;;;;4223592;28;20081;-65
2021/04/28 08:25:35;;;;;;;5.53;5.00;;;9.20;99.90;;;;;;4221950;28;20023;-64
2021/04/28 08:27:37;;;;;;;7.63;4.90;;;9.30;99.90;;;;;;4223105;28;20040;-65
2021/04/28 08:29:38;;;;;;;10.03;5.40;;;9.30;99.90;;;;;;4222186;28;20140;-65
2021/04/28 08:31:39;;;;;;;6.57;4.77;;;9.40;99.90;;;;;;4223819;28;20085;-65
2021/04/28 08:33:41;;;;;;;7.23;4.40;;;9.40;99.90;;;;;;4221686;28;20480;-64
2021/04/28 08:35:42;;;;;;;5.90;4.60;;;9.40;99.90;;;;;;4223640;28;20501;-64
2021/04/28 08:37:45;;;;;;;5.00;4.47;;;9.50;99.90;;;;;;4221671;28;20036;-65
2021/04/28 08:39:47;;;;;;;6.80;5.40;;;9.60;99.90;;;;;;4223279;28;20421;-65
2021/04/28 08:41:50;;;;;;;7.50;4.77;;;9.70;99.90;;;;;;4221650;28;20035;-70
2021/04/28 08:43:51;;;;;;;5.43;4.67;;;9.80;99.90;;;;;;4222477;28;20031;-66
2021/04/28 08:45:53;;;;;;;8.53;5.73;;;10.20;99.90;;;;;;4222533;28;20012;-65
2021/04/28 08:47:55;;;;;;;7.23;5.07;;;10.60;99.90;;;;;;4221780;28;20796;-65
2021/04/28 08:49:56;;;;;;;5.97;4.47;;;10.70;99.90;;;;;;4223227;28;20031;-73
2021/04/28 08:51:59;;;;;;;6.33;5.20;;;10.90;99.90;;;;;;4221673;28;20621;-64
2021/04/28 08:54:00;;;;;;;6.80;4.80;;;10.80;99.90;;;;;;4223147;28;20076;-65
2021/04/28 08:56:08;;;;;;;5.07;4.47;;;10.80;99.90;;;;;;4221778;28;20085;-76
2021/04/28 08:58:10;;;;;;;5.37;4.47;;;10.90;99.90;;;;;;4225031;28;20027;-67
2021/04/28 09:00:12;;;;;;;5.73;4.53;;;10.90;99.90;;;;;;4221379;28;20425;-65
2021/04/28 09:02:28;;;;;;;5.30;4.80;;;10.70;99.90;;;;;;4222994;28;20093;-65
2021/04/28 09:04:30;;;;;;;5.43;4.40;;;10.60;99.90;;;;;;4221495;28;20781;-65
2021/04/28 09:06:33;;;;;;;6.60;4.83;;;10.40;99.90;;;;;;4223082;28;20496;-65
2021/04/28 09:08:34;;;;;;;6.37;4.97;;;10.40;99.90;;;;;;4220801;28;20027;-64
2021/04/28 09:10:36;;;;;;;9.07;5.00;;;10.30;99.90;;;;;;4222667;28;20069;-65
2021/04/28 09:12:38;;;;;;;6.47;5.27;;;10.30;99.90;;;;;;4220934;28;20092;-65
2021/04/28 09:14:45;;;;;;;8.00;4.73;;;10.30;99.90;;;;;;4223137;28;20065;-64
2021/04/28 09:16:55;;;;;;;6.57;5.03;;;10.10;99.90;;;;;;4221393;28;20027;-64
2021/04/28 09:18:56;;;;;;;6.93;4.88;;;10.20;99.90;;;;;;4223864;28;20027;-77
2021/04/28 09:20:59;;;;;;;5.03;4.43;;;10.20;99.90;;;;;;4221345;28;20088;-65
2021/04/28 09:23:03;;;;;;;8.63;4.73;;;10.20;99.90;;;;;;4222832;28;20031;-66
2021/04/28 09:25:05;;;;;;;7.33;4.93;;;10.20;99.90;;;;;;4221028;28;20089;-65
2021/04/28 09:27:24;;;;;;;4.77;4.10;;;10.30;99.90;;;;;;4222175;28;20092;-64
2021/04/28 09:29:33;;;;;;;5.70;4.50;;;10.30;99.90;;;;;;4220130;28;20553;-64
2021/04/28 09:31:35;;;;;;;6.03;4.17;;;10.40;99.90;;;;;;4222577;28;20077;-68
2021/04/28 09:33:41;;;;;;;4.63;4.10;;;10.40;99.90;;;;;;4219524;28;20508;-63
2021/04/28 09:35:43;;;;;;;6.47;4.70;;;10.50;99.90;;;;;;4222328;28;20364;-64
2021/04/28 09:38:01;;;;;;;5.20;4.33;;;10.60;99.90;;;;;;4221824;28;20035;-72
2021/04/28 09:40:02;;;;;;;6.17;4.03;;;10.60;99.90;;;;;;4221906;28;20077;-65
2021/04/28 09:42:04;;;;;;;6.53;4.83;;;10.50;99.90;;;;;;4221320;28;20089;-65
2021/04/28 09:44:21;;;;;;;5.80;4.17;;;10.60;99.90;;;;;;4220823;28;20108;-64
2021/04/28 09:46:22;;;;;;;5.53;3.93;;;10.70;99.90;;;;;;4221817;28;20031;-64
2021/04/28 09:48:25;;;;;;;11.40;6.90;;;10.90;99.90;;;;;;4221447;28;20096;-70
2021/04/28 09:50:29;;;;;;;8.20;4.60;;;11.20;99.90;;;;;;4222345;28;20126;-65
2021/04/28 09:52:30;;;;;;;4.23;3.70;;;11.60;99.90;;;;;;4220348;28;20077;-75
2021/04/28 09:54:32;;;;;;;4.33;3.47;;;11.70;99.90;;;;;;4222600;28;20385;-64
2021/04/28 09:56:37;;;;;;;4.83;3.67;;;11.70;99.90;;;;;;4221126;28;20024;-71
2021/04/28 09:58:52;;;;;;;5.13;4.27;;;11.90;99.90;;;;;;4222120;28;20173;-68
2021/04/28 10:00:59;;;;;;;6.83;3.73;;;12.00;99.90;;;;;;4218571;28;20073;-64
2021/04/28 10:03:05;;;;;;;3.93;3.47;;;12.10;99.90;;;;;;4222267;28;20557;-64
2021/04/28 10:05:15;;;;;;;4.13;3.00;;;12.40;99.90;;;;;;4220641;28;20495;-64
2021/04/28 10:07:27;;;;;;;4.15;3.63;;;12.60;99.90;;;;;;4222455;28;20040;-65
2021/04/28 10:09:38;;;;;;;3.60;3.17;;;12.60;99.90;;;;;;4220298;28;20061;-66
2021/04/28 10:11:39;;;;;;;3.57;3.17;;;12.40;99.90;;;;;;4220357;28;20031;-67
2021/04/28 10:13:43;;;;;;;3.70;3.10;;;12.30;99.90;;;;;;4220444;28;20035;-65
2021/04/28 10:15:45;;;;;;;5.50;3.27;;;12.20;99.90;;;;;;4222377;28;20433;-64
2021/04/28 10:17:47;;;;;;;4.00;3.00;;;12.10;99.90;;;;;;4220378;28;20027;-64
2021/04/28 10:19:49;;;;;;;4.57;3.07;;;12.00;99.90;;;;;;4222925;28;20057;-64
2021/04/28 10:21:53;;;;;;;3.80;3.10;;;11.90;99.90;;;;;;4220450;28;20100;-64
2021/04/28 10:23:55;;;;;;;3.13;2.83;;;11.80;99.90;;;;;;4222883;28;20623;-64
2021/04/28 10:25:57;;;;;;;3.57;3.20;;;11.80;99.90;;;;;;4223373;28;20104;-64
2021/04/28 10:28:00;;;;;;;3.90;3.03;;;11.90;99.90;;;;;;4223131;28;20773;-66
2021/04/28 10:30:02;;;;;;;5.10;2.77;;;12.00;99.90;;;;;;4221804;28;20470;-65
2021/04/28 10:32:07;;;;;;;3.87;3.13;;;12.10;99.90;;;;;;4224313;28;20080;-71
2021/04/28 10:34:10;;;;;;;4.07;3.50;;;12.20;99.90;;;;;;4223423;28;20079;-63